createdAt,value
2019-02-19T00:00:33.541Z,55.20
2019-02-19T00:01:46.769Z,55.10
2019-02-19T00:03:00.003Z,55.00
2019-02-19T00:04:13.222Z,55.00
2019-02-19T00:05:26.453Z,55.40
2019-02-19T00:06:39.673Z,55.30
2019-02-19T00:07:52.905Z,55.30
2019-02-19T00:09:06.137Z,55.60
2019-02-19T00:10:19.368Z,55.80
2019-02-19T00:11:32.594Z,55.90
2019-02-19T00:12:45.825Z,55.70
2019-02-19T00:13:59.938Z,55.40
2019-02-19T00:15:13.157Z,55.40
2019-02-19T00:16:26.403Z,55.30
2019-02-19T00:17:39.610Z,54.80
2019-02-19T00:18:52.853Z,54.50
2019-02-19T00:20:06.083Z,54.60
2019-02-19T00:21:19.305Z,54.50
2019-02-19T00:22:32.527Z,54.30
2019-02-19T00:23:45.774Z,54.50
2019-02-19T00:25:01.062Z,54.50
2019-02-19T00:26:13.377Z,54.30
2019-02-19T00:27:26.619Z,54.30
2019-02-19T00:28:39.919Z,54.50
2019-02-19T00:29:53.133Z,54.50
2019-02-19T00:31:06.370Z,54.90
2019-02-19T00:32:19.593Z,55.00
2019-02-19T00:33:32.831Z,55.10
2019-02-19T00:34:46.060Z,55.20
2019-02-19T00:35:59.281Z,55.30
2019-02-19T00:37:12.513Z,55.50
2019-02-19T00:38:25.748Z,55.40
2019-02-19T00:39:40.121Z,54.70
2019-02-19T00:40:53.341Z,54.80
2019-02-19T00:42:06.634Z,54.50
2019-02-19T00:43:23.130Z,54.20
2019-02-19T00:44:36.356Z,54.20
2019-02-19T00:45:49.602Z,53.90
2019-02-19T00:47:02.892Z,54.20
2019-02-19T00:48:16.173Z,54.20
2019-02-19T00:49:29.646Z,53.90
2019-02-19T00:50:42.880Z,53.90
2019-02-19T00:51:56.105Z,53.70
2019-02-19T00:53:09.418Z,53.70
2019-02-19T00:54:22.660Z,53.80
2019-02-19T00:55:35.877Z,54.00
2019-02-19T00:56:49.097Z,54.10
2019-02-19T00:58:02.313Z,53.90
2019-02-19T00:59:15.549Z,53.80
2019-02-19T01:00:28.771Z,53.70
2019-02-19T01:01:42.010Z,53.80
2019-02-19T01:02:55.245Z,53.90
2019-02-19T01:04:08.472Z,53.50
2019-02-19T01:05:21.728Z,53.30
2019-02-19T01:06:34.997Z,53.30
2019-02-19T01:07:48.226Z,53.40
2019-02-19T01:09:01.461Z,53.20
2019-02-19T01:10:14.685Z,53.30
2019-02-19T01:11:27.908Z,53.70
2019-02-19T01:12:41.599Z,53.40
2019-02-19T01:13:54.830Z,53.20
2019-02-19T01:15:09.696Z,53.30
2019-02-19T01:16:22.918Z,53.40
2019-02-19T01:17:36.162Z,53.20
2019-02-19T01:18:49.388Z,52.90
2019-02-19T01:20:02.769Z,53.30
2019-02-19T01:21:15.994Z,53.50
2019-02-19T01:22:29.217Z,53.20
2019-02-19T01:23:42.470Z,53.00
2019-02-19T01:24:55.931Z,52.60
2019-02-19T01:26:09.162Z,52.50
2019-02-19T01:27:22.387Z,52.70
2019-02-19T01:28:35.668Z,53.30
2019-02-19T01:29:48.911Z,52.70
2019-02-19T01:31:02.126Z,52.80
2019-02-19T01:32:15.346Z,53.00
2019-02-19T01:33:28.581Z,53.10
2019-02-19T01:34:41.822Z,52.90
2019-02-19T01:35:55.044Z,53.00
2019-02-19T01:37:08.270Z,53.00
2019-02-19T01:38:21.494Z,53.00
2019-02-19T01:39:34.729Z,53.30
2019-02-19T01:40:47.960Z,53.30
2019-02-19T01:42:01.425Z,53.40
2019-02-19T01:43:14.654Z,53.30
2019-02-19T01:44:27.880Z,53.10
2019-02-19T01:45:41.565Z,53.30
2019-02-19T01:46:54.805Z,53.30
2019-02-19T01:48:08.038Z,53.20
2019-02-19T01:49:21.269Z,53.30
2019-02-19T01:50:34.489Z,53.60
2019-02-19T01:51:47.727Z,53.70
2019-02-19T01:53:00.945Z,53.50
2019-02-19T01:54:14.187Z,53.60
2019-02-19T01:55:27.406Z,53.70
2019-02-19T01:56:40.638Z,53.70
2019-02-19T01:57:53.874Z,53.70
2019-02-19T01:59:07.115Z,54.10
2019-02-19T02:00:20.329Z,54.20
2019-02-19T02:01:33.549Z,54.00
2019-02-19T02:02:46.773Z,53.80
2019-02-19T02:03:59.997Z,54.00
2019-02-19T02:05:13.238Z,54.00
2019-02-19T02:06:26.468Z,54.00
2019-02-19T02:07:39.762Z,54.10
2019-02-19T02:08:52.974Z,54.20
2019-02-19T02:10:07.250Z,54.30
2019-02-19T02:11:20.477Z,54.40
2019-02-19T02:12:33.703Z,54.50
2019-02-19T02:13:46.919Z,54.50
2019-02-19T02:15:00.266Z,54.60
2019-02-19T02:16:13.464Z,54.50
2019-02-19T02:17:26.686Z,54.50
2019-02-19T02:18:39.912Z,54.60
2019-02-19T02:19:53.134Z,54.50
2019-02-19T02:21:06.603Z,54.60
2019-02-19T02:22:19.829Z,54.60
2019-02-19T02:23:33.066Z,54.60
2019-02-19T02:24:46.294Z,54.70
2019-02-19T02:25:59.522Z,54.70
2019-02-19T02:27:12.781Z,54.60
2019-02-19T02:28:26.050Z,54.70
2019-02-19T02:29:40.568Z,54.90
2019-02-19T02:30:53.790Z,54.90
2019-02-19T02:32:07.015Z,54.90
2019-02-19T02:33:20.245Z,55.00
2019-02-19T02:34:33.553Z,55.00
2019-02-19T02:35:46.846Z,54.90
2019-02-19T02:37:00.072Z,55.10
2019-02-19T02:38:13.293Z,55.10
2019-02-19T02:39:26.521Z,55.30
2019-02-19T02:40:39.753Z,55.50
2019-02-19T02:41:52.978Z,55.50
2019-02-19T02:43:06.199Z,55.60
2019-02-19T02:44:19.427Z,55.80
2019-02-19T02:45:33.398Z,55.80
2019-02-19T02:46:46.609Z,55.90
2019-02-19T02:47:59.845Z,56.20
2019-02-19T02:49:13.070Z,56.30
2019-02-19T02:50:26.310Z,56.40
2019-02-19T02:51:39.531Z,56.50
2019-02-19T02:52:52.750Z,56.70
2019-02-19T02:54:05.973Z,56.80
2019-02-19T02:55:19.471Z,57.00
2019-02-19T02:56:32.855Z,57.20
2019-02-19T02:57:46.073Z,57.20
2019-02-19T02:58:59.307Z,57.40
2019-02-19T03:00:12.996Z,57.60
2019-02-19T03:01:26.222Z,57.70
2019-02-19T03:02:39.455Z,57.70
2019-02-19T03:03:52.730Z,57.70
2019-02-19T03:05:06.131Z,57.90
2019-02-19T03:06:21.003Z,58.00
2019-02-19T03:07:35.855Z,58.10
2019-02-19T03:08:49.086Z,58.10
2019-02-19T03:10:02.329Z,58.10
2019-02-19T03:11:15.566Z,58.20
2019-02-19T03:12:28.797Z,58.00
2019-02-19T03:13:42.022Z,58.00
2019-02-19T03:14:55.247Z,58.30
2019-02-19T03:16:08.476Z,58.30
2019-02-19T03:17:21.706Z,58.30
2019-02-19T03:18:34.933Z,58.20
2019-02-19T03:19:48.153Z,58.20
2019-02-19T03:21:01.383Z,58.20
2019-02-19T03:22:14.622Z,59.10
2019-02-19T03:23:28.803Z,58.30
2019-02-19T03:24:42.027Z,58.30
2019-02-19T03:25:55.273Z,58.30
2019-02-19T03:27:08.490Z,58.30
2019-02-19T03:28:21.725Z,58.40
2019-02-19T03:29:34.964Z,58.50
2019-02-19T03:30:48.190Z,58.70
2019-02-19T03:32:01.415Z,58.60
2019-02-19T03:33:14.660Z,58.50
2019-02-19T03:34:27.902Z,58.60
2019-02-19T03:35:41.137Z,58.50
2019-02-19T03:36:54.375Z,58.60
2019-02-19T03:38:08.163Z,58.90
2019-02-19T03:39:21.634Z,58.60
2019-02-19T03:40:34.877Z,58.60
2019-02-19T03:41:48.095Z,58.80
2019-02-19T03:43:01.335Z,59.00
2019-02-19T03:44:14.565Z,59.00
2019-02-19T03:45:27.813Z,59.10
2019-02-19T03:46:41.115Z,59.30
2019-02-19T03:47:54.342Z,59.10
2019-02-19T03:49:07.562Z,59.20
2019-02-19T03:50:20.780Z,59.30
2019-02-19T03:51:34.010Z,59.10
2019-02-19T03:52:47.243Z,59.20
2019-02-19T03:54:00.467Z,59.10
2019-02-19T03:55:13.766Z,59.20
2019-02-19T03:56:27.241Z,59.40
2019-02-19T03:57:40.457Z,59.40
2019-02-19T03:58:53.701Z,59.50
2019-02-19T04:00:08.049Z,59.40
2019-02-19T04:01:21.276Z,59.50
2019-02-19T04:02:34.502Z,59.90
2019-02-19T04:03:47.722Z,59.80
2019-02-19T04:05:00.950Z,59.90
2019-02-19T04:06:14.190Z,59.90
2019-02-19T04:07:27.426Z,59.90
2019-02-19T04:08:40.647Z,60.00
2019-02-19T04:09:53.873Z,60.10
2019-02-19T04:11:07.102Z,60.00
2019-02-19T04:12:20.325Z,59.90
2019-02-19T04:13:33.553Z,60.20
2019-02-19T04:14:46.793Z,60.40
2019-02-19T04:16:00.022Z,60.50
2019-02-19T04:17:13.257Z,61.40
2019-02-19T04:18:26.501Z,60.60
2019-02-19T04:19:39.726Z,61.90
2019-02-19T04:20:52.962Z,60.80
2019-02-19T04:22:06.453Z,61.10
2019-02-19T04:23:19.866Z,61.20
2019-02-19T04:24:33.094Z,61.10
2019-02-19T04:25:46.314Z,61.50
2019-02-19T04:26:59.553Z,61.60
2019-02-19T04:28:12.797Z,61.20
2019-02-19T04:29:26.087Z,61.20
2019-02-19T04:30:39.309Z,61.40
2019-02-19T04:31:52.546Z,61.50
2019-02-19T04:33:05.787Z,61.60
2019-02-19T04:34:19.002Z,61.60
2019-02-19T04:35:32.225Z,61.80
2019-02-19T04:36:45.490Z,61.60
2019-02-19T04:37:58.763Z,61.40
2019-02-19T04:39:11.994Z,61.60
2019-02-19T04:40:25.214Z,61.40
2019-02-19T04:41:38.442Z,61.60
2019-02-19T04:42:51.693Z,61.70
2019-02-19T04:44:04.914Z,61.80
2019-02-19T04:45:18.154Z,62.00
2019-02-19T04:46:31.912Z,62.20
2019-02-19T04:47:46.829Z,62.10
2019-02-19T04:49:00.057Z,62.00
2019-02-19T04:50:14.491Z,62.10
2019-02-19T04:51:27.719Z,62.10
2019-02-19T04:52:42.102Z,61.90
2019-02-19T04:53:55.329Z,62.50
2019-02-19T04:55:08.558Z,62.30
2019-02-19T04:56:21.790Z,62.20
2019-02-19T04:57:35.030Z,62.50
2019-02-19T04:58:48.265Z,62.60
2019-02-19T05:00:01.482Z,62.50
2019-02-19T05:01:14.706Z,62.10
2019-02-19T05:02:27.934Z,61.80
2019-02-19T05:03:41.162Z,61.50
2019-02-19T05:04:54.393Z,61.50
2019-02-19T05:06:07.624Z,61.50
2019-02-19T05:07:20.865Z,61.30
2019-02-19T05:08:34.111Z,61.20
2019-02-19T05:09:47.330Z,61.60
2019-02-19T05:11:00.553Z,62.00
2019-02-19T05:12:13.794Z,61.80
2019-02-19T05:13:27.017Z,62.10
2019-02-19T05:14:40.817Z,62.50
2019-02-19T05:15:54.042Z,63.00
2019-02-19T05:17:07.273Z,62.60
2019-02-19T05:18:22.144Z,62.50
2019-02-19T05:19:35.392Z,62.60
2019-02-19T05:20:50.793Z,62.60
2019-02-19T05:22:04.022Z,62.30
2019-02-19T05:23:17.247Z,62.20
2019-02-19T05:24:33.491Z,62.80
2019-02-19T05:25:46.730Z,62.10
2019-02-19T05:27:02.339Z,62.50
2019-02-19T05:28:15.589Z,62.70
2019-02-19T05:29:28.794Z,62.80
2019-02-19T05:30:43.087Z,62.80
2019-02-19T05:31:56.438Z,62.60
2019-02-19T05:33:09.666Z,62.90
2019-02-19T05:34:22.890Z,62.80
2019-02-19T05:35:36.142Z,63.60
2019-02-19T05:36:49.373Z,63.60
2019-02-19T05:38:02.604Z,63.30
2019-02-19T05:39:15.842Z,62.80
2019-02-19T05:40:29.069Z,62.80
2019-02-19T05:41:42.321Z,63.30
2019-02-19T05:42:55.537Z,63.10
2019-02-19T05:44:08.765Z,62.60
2019-02-19T05:45:22.008Z,62.90
2019-02-19T05:46:35.219Z,63.10
2019-02-19T05:47:48.468Z,63.40
2019-02-19T05:49:01.693Z,63.10
2019-02-19T05:50:14.921Z,63.30
2019-02-19T05:51:28.143Z,63.40
2019-02-19T05:52:41.395Z,63.80
2019-02-19T05:53:54.618Z,64.00
2019-02-19T05:55:11.165Z,63.50
2019-02-19T05:56:24.466Z,63.90
2019-02-19T05:57:37.708Z,64.10
2019-02-19T05:58:51.006Z,64.10
2019-02-19T06:00:07.110Z,64.40
2019-02-19T06:01:20.346Z,64.20
2019-02-19T06:02:33.575Z,64.40
2019-02-19T06:03:46.801Z,64.20
2019-02-19T06:05:00.045Z,64.40
2019-02-19T06:06:13.324Z,64.20
2019-02-19T06:07:26.553Z,64.00
2019-02-19T06:08:39.783Z,64.40
2019-02-19T06:09:53.002Z,64.30
2019-02-19T06:11:06.245Z,64.10
2019-02-19T06:12:19.477Z,64.30
2019-02-19T06:13:32.707Z,64.40
2019-02-19T06:14:45.924Z,64.10
2019-02-19T06:15:59.150Z,64.20
2019-02-19T06:17:12.386Z,64.20
2019-02-19T06:18:25.622Z,64.50
2019-02-19T06:19:38.859Z,64.60
2019-02-19T06:20:52.091Z,64.60
2019-02-19T06:22:05.334Z,65.00
2019-02-19T06:23:18.570Z,65.20
2019-02-19T06:24:31.789Z,65.60
2019-02-19T06:25:45.030Z,65.30
2019-02-19T06:26:59.886Z,66.20
2019-02-19T06:28:13.122Z,66.20
2019-02-19T06:29:26.349Z,65.70
2019-02-19T06:30:39.570Z,66.70
2019-02-19T06:31:52.795Z,65.50
2019-02-19T06:33:06.730Z,67.60
2019-02-19T06:34:19.950Z,68.30
2019-02-19T06:35:33.183Z,66.00
2019-02-19T06:36:46.401Z,72.40
2019-02-19T06:38:00.206Z,66.90
2019-02-19T06:39:13.429Z,66.50
2019-02-19T06:40:28.908Z,67.30
2019-02-19T06:41:43.100Z,66.30
2019-02-19T06:42:56.335Z,66.70
2019-02-19T06:44:09.908Z,66.90
2019-02-19T06:45:23.130Z,66.10
2019-02-19T06:46:36.357Z,66.90
2019-02-19T06:47:49.599Z,66.20
2019-02-19T06:49:04.445Z,66.30
2019-02-19T06:50:17.906Z,67.60
2019-02-19T06:51:31.254Z,67.20
2019-02-19T06:52:44.482Z,66.10
2019-02-19T06:53:57.712Z,65.70
2019-02-19T06:55:10.949Z,65.40
2019-02-19T06:56:24.178Z,65.20
2019-02-19T06:57:37.396Z,65.20
2019-02-19T06:58:51.366Z,65.50
2019-02-19T07:00:07.764Z,66.10
2019-02-19T07:01:22.664Z,66.70
2019-02-19T07:02:37.529Z,66.50
2019-02-19T07:03:55.094Z,66.50
2019-02-19T07:05:09.975Z,66.30
2019-02-19T07:06:23.201Z,66.10
2019-02-19T07:07:36.453Z,65.50
2019-02-19T07:08:49.677Z,65.50
2019-02-19T07:10:03.178Z,65.50
2019-02-19T07:11:16.517Z,65.50
2019-02-19T07:12:29.741Z,64.70
2019-02-19T07:13:42.976Z,64.50
2019-02-19T07:14:56.209Z,64.30
2019-02-19T07:16:09.426Z,64.00
2019-02-19T07:17:24.799Z,63.60
2019-02-19T07:18:38.045Z,64.00
2019-02-19T07:19:51.267Z,64.60
2019-02-19T07:21:04.493Z,63.80
2019-02-19T07:22:17.722Z,63.80
2019-02-19T07:23:30.955Z,63.60
2019-02-19T07:24:44.196Z,63.60
2019-02-19T07:25:57.434Z,63.60
2019-02-19T07:27:10.717Z,63.00
2019-02-19T07:28:24.033Z,63.20
2019-02-19T07:29:37.257Z,63.20
2019-02-19T07:30:50.498Z,63.10
2019-02-19T07:32:03.746Z,62.80
2019-02-19T07:33:16.970Z,62.30
2019-02-19T07:34:30.290Z,62.00
2019-02-19T07:35:43.766Z,62.00
2019-02-19T07:36:57.151Z,61.80
2019-02-19T07:38:10.360Z,61.60
2019-02-19T07:39:23.594Z,61.60
2019-02-19T07:40:36.835Z,61.10
2019-02-19T07:41:50.059Z,61.50
2019-02-19T07:43:03.295Z,60.70
2019-02-19T07:44:16.515Z,60.10
2019-02-19T07:45:29.750Z,59.80
2019-02-19T07:46:42.986Z,59.50
2019-02-19T07:47:56.206Z,59.40
2019-02-19T07:49:09.443Z,59.30
2019-02-19T07:50:24.858Z,59.40
2019-02-19T07:51:38.151Z,58.90
2019-02-19T07:52:51.407Z,59.00
2019-02-19T07:54:04.626Z,58.90
2019-02-19T07:55:17.894Z,58.70
2019-02-19T07:56:31.150Z,59.10
2019-02-19T07:57:44.381Z,59.00
2019-02-19T07:58:57.605Z,58.90
2019-02-19T08:00:12.997Z,58.40
2019-02-19T08:01:26.247Z,58.00
2019-02-19T08:02:39.485Z,57.80
2019-02-19T08:03:52.709Z,58.00
2019-02-19T08:05:06.114Z,57.90
2019-02-19T08:06:19.342Z,57.60
2019-02-19T08:07:32.569Z,57.50
2019-02-19T08:08:45.793Z,57.20
2019-02-19T08:09:59.013Z,57.20
2019-02-19T08:11:12.491Z,56.80
2019-02-19T08:12:26.294Z,56.70
2019-02-19T08:13:39.637Z,56.50
2019-02-19T08:14:52.883Z,56.40
2019-02-19T08:16:06.101Z,56.30
2019-02-19T08:17:19.330Z,56.50
2019-02-19T08:18:32.566Z,56.20
2019-02-19T08:19:48.757Z,55.50
2019-02-19T08:21:02.122Z,55.40
2019-02-19T08:22:15.355Z,55.30
2019-02-19T08:23:29.902Z,55.40
2019-02-19T08:24:43.299Z,54.60
2019-02-19T08:25:56.538Z,54.50
2019-02-19T08:27:10.007Z,54.10
2019-02-19T08:28:24.873Z,54.30
2019-02-19T08:29:38.118Z,54.20
2019-02-19T08:30:51.341Z,54.20
2019-02-19T08:32:04.565Z,54.10
2019-02-19T08:33:17.794Z,54.00
2019-02-19T08:34:31.022Z,54.10
2019-02-19T08:35:44.266Z,54.10
2019-02-19T08:36:57.495Z,53.90
2019-02-19T08:38:10.721Z,53.70
2019-02-19T08:39:23.949Z,53.70
2019-02-19T08:40:37.183Z,53.40
2019-02-19T08:41:50.417Z,53.30
2019-02-19T08:43:03.641Z,53.00
2019-02-19T08:44:16.871Z,53.00
2019-02-19T08:45:30.093Z,52.70
2019-02-19T08:46:43.346Z,52.70
2019-02-19T08:47:56.584Z,52.50
2019-02-19T08:49:09.805Z,52.20
2019-02-19T08:50:23.035Z,51.70
2019-02-19T08:51:36.257Z,51.40
2019-02-19T08:52:49.502Z,51.50
2019-02-19T08:54:02.742Z,51.10
2019-02-19T08:55:15.962Z,51.00
2019-02-19T08:56:29.203Z,50.80
2019-02-19T08:57:42.444Z,50.50
2019-02-19T08:58:55.670Z,50.60
2019-02-19T09:00:10.937Z,50.70
2019-02-19T09:01:24.169Z,50.30
2019-02-19T09:02:37.419Z,50.30
2019-02-19T09:03:50.653Z,49.80
2019-02-19T09:05:04.927Z,49.70
2019-02-19T09:06:18.157Z,49.70
2019-02-19T09:07:31.411Z,49.70
2019-02-19T09:08:44.643Z,49.70
2019-02-19T09:09:57.882Z,49.20
2019-02-19T09:11:11.112Z,49.00
2019-02-19T09:12:24.338Z,48.70
2019-02-19T09:13:37.566Z,48.70
2019-02-19T09:14:50.797Z,48.70
2019-02-19T09:16:04.025Z,48.80
2019-02-19T09:17:17.254Z,48.50
2019-02-19T09:18:30.482Z,48.00
2019-02-19T09:19:43.725Z,48.30
2019-02-19T09:20:56.961Z,48.10
2019-02-19T09:22:10.197Z,47.70
2019-02-19T09:23:23.435Z,47.40
2019-02-19T09:24:36.673Z,47.10
2019-02-19T09:25:49.910Z,47.00
2019-02-19T09:27:03.132Z,46.90
2019-02-19T09:28:16.378Z,46.40
2019-02-19T09:29:29.623Z,45.90
2019-02-19T09:30:42.898Z,45.90
2019-02-19T09:31:56.122Z,46.00
2019-02-19T09:33:09.349Z,46.20
2019-02-19T09:34:22.581Z,46.60
2019-02-19T09:35:36.519Z,46.10
2019-02-19T09:36:49.762Z,45.50
2019-02-19T09:38:02.985Z,44.90
2019-02-19T09:39:16.233Z,44.90
2019-02-19T09:40:29.529Z,45.10
2019-02-19T09:41:42.777Z,45.10
2019-02-19T09:42:55.993Z,45.10
2019-02-19T09:44:09.230Z,44.70
2019-02-19T09:45:22.457Z,44.50
2019-02-19T09:46:35.696Z,44.20
2019-02-19T09:47:48.921Z,44.30
2019-02-19T09:49:02.154Z,44.40
2019-02-19T09:50:15.389Z,44.50
2019-02-19T09:51:28.621Z,44.20
2019-02-19T09:52:41.878Z,44.10
2019-02-19T09:53:55.101Z,44.40
2019-02-19T09:55:08.404Z,44.30
2019-02-19T09:56:22.098Z,44.00
2019-02-19T09:57:35.411Z,44.60
2019-02-19T09:58:48.650Z,44.50
2019-02-19T10:00:01.891Z,44.10
2019-02-19T10:01:15.125Z,44.40
2019-02-19T10:02:28.373Z,44.00
2019-02-19T10:03:41.665Z,44.30
2019-02-19T10:04:54.909Z,44.40
2019-02-19T10:06:08.140Z,44.30
2019-02-19T10:07:21.370Z,44.40
2019-02-19T10:08:34.601Z,44.20
2019-02-19T10:09:47.825Z,44.50
2019-02-19T10:11:01.070Z,44.30
2019-02-19T10:12:14.308Z,44.30
2019-02-19T10:13:27.537Z,44.20
2019-02-19T10:14:40.778Z,44.20
2019-02-19T10:15:54.034Z,44.00
2019-02-19T10:17:07.274Z,44.20
2019-02-19T10:18:20.491Z,44.60
2019-02-19T10:19:33.722Z,44.80
2019-02-19T10:20:46.976Z,44.60
2019-02-19T10:22:00.205Z,44.00
2019-02-19T10:23:13.436Z,44.20
2019-02-19T10:24:26.663Z,43.50
2019-02-19T10:25:39.893Z,43.50
2019-02-19T10:26:53.137Z,43.80
2019-02-19T10:28:06.374Z,43.80
2019-02-19T10:29:20.566Z,43.20
2019-02-19T10:30:33.781Z,43.40
2019-02-19T10:31:47.251Z,44.00
2019-02-19T10:33:00.494Z,43.30
2019-02-19T10:34:13.732Z,43.40
2019-02-19T10:35:26.961Z,43.60
2019-02-19T10:36:40.196Z,43.00
2019-02-19T10:37:53.438Z,43.00
2019-02-19T10:39:08.310Z,43.10
2019-02-19T10:40:21.541Z,43.50
2019-02-19T10:41:34.778Z,43.40
2019-02-19T10:42:49.644Z,43.50
2019-02-19T10:44:02.936Z,42.90
2019-02-19T10:45:21.311Z,42.40
2019-02-19T10:46:34.553Z,42.50
2019-02-19T10:47:47.773Z,41.60
2019-02-19T10:49:02.401Z,41.60
2019-02-19T10:50:15.634Z,41.30
2019-02-19T10:51:28.863Z,41.20
2019-02-19T10:52:42.178Z,41.50
2019-02-19T10:53:55.410Z,41.70
2019-02-19T10:55:09.854Z,41.10
2019-02-19T10:56:23.095Z,41.00
2019-02-19T10:57:36.322Z,40.80
2019-02-19T10:58:49.559Z,40.70
2019-02-19T11:00:02.905Z,40.40
2019-02-19T11:01:16.125Z,41.00
2019-02-19T11:02:29.362Z,40.40
2019-02-19T11:03:42.604Z,40.50
2019-02-19T11:04:55.842Z,40.70
2019-02-19T11:06:09.089Z,41.00
2019-02-19T11:07:22.363Z,41.00
2019-02-19T11:08:35.627Z,40.10
2019-02-19T11:09:48.856Z,40.60
2019-02-19T11:11:02.120Z,40.30
2019-02-19T11:12:15.342Z,39.50
2019-02-19T11:13:28.573Z,39.40
2019-02-19T11:14:41.818Z,39.80
2019-02-19T11:15:55.058Z,39.60
2019-02-19T11:17:08.288Z,39.70
2019-02-19T11:18:28.075Z,40.00
2019-02-19T11:19:36.474Z,39.70
2019-02-19T11:20:49.951Z,40.00
2019-02-19T11:22:03.194Z,40.10
2019-02-19T11:23:16.418Z,40.40
2019-02-19T11:24:29.641Z,39.80
2019-02-19T11:25:42.883Z,39.90
2019-02-19T11:26:56.116Z,39.50
2019-02-19T11:28:09.349Z,39.30
2019-02-19T11:29:22.561Z,38.60
2019-02-19T11:30:35.792Z,39.00
2019-02-19T11:31:49.025Z,39.10
2019-02-19T11:33:02.252Z,38.20
2019-02-19T11:34:15.476Z,38.50
2019-02-19T11:35:28.709Z,38.60
2019-02-19T11:36:41.959Z,39.00
2019-02-19T11:37:55.186Z,39.30
2019-02-19T11:39:08.577Z,39.60
2019-02-19T11:40:21.810Z,40.00
2019-02-19T11:41:35.049Z,40.00
2019-02-19T11:42:48.285Z,40.40
2019-02-19T11:44:01.514Z,40.70
2019-02-19T11:45:15.779Z,40.90
2019-02-19T11:46:29.006Z,41.50
2019-02-19T11:47:42.246Z,41.50
2019-02-19T11:48:56.265Z,41.90
2019-02-19T11:50:11.419Z,42.30
2019-02-19T11:51:24.641Z,42.70
2019-02-19T11:52:37.870Z,42.70
2019-02-19T11:53:51.099Z,42.50
2019-02-19T11:55:05.565Z,42.60
2019-02-19T11:56:18.797Z,42.70
2019-02-19T11:57:32.037Z,42.90
2019-02-19T11:58:45.265Z,42.70
2019-02-19T11:59:58.565Z,42.50
2019-02-19T12:01:11.798Z,42.50
2019-02-19T12:02:32.711Z,42.80
2019-02-19T12:03:39.979Z,42.80
2019-02-19T12:04:53.291Z,42.90
2019-02-19T12:06:06.526Z,42.80
2019-02-19T12:07:19.755Z,43.00
2019-02-19T12:08:38.827Z,43.30
2019-02-19T12:09:47.974Z,43.30
2019-02-19T12:11:01.246Z,43.40
2019-02-19T12:12:14.477Z,43.30
2019-02-19T12:13:27.726Z,43.10
2019-02-19T12:14:40.960Z,43.40
2019-02-19T12:15:54.193Z,43.40
2019-02-19T12:17:08.710Z,43.30
2019-02-19T12:18:21.933Z,43.00
2019-02-19T12:19:35.185Z,42.90
2019-02-19T12:20:48.411Z,43.00
2019-02-19T12:22:02.908Z,43.10
2019-02-19T12:23:16.204Z,43.20
2019-02-19T12:24:29.436Z,43.30
2019-02-19T12:25:42.674Z,43.40
2019-02-19T12:26:55.910Z,43.20
2019-02-19T12:28:09.138Z,43.00
2019-02-19T12:29:22.364Z,42.90
2019-02-19T12:30:35.611Z,44.00
2019-02-19T12:31:48.837Z,42.90
2019-02-19T12:33:02.070Z,43.00
2019-02-19T12:34:15.299Z,43.00
2019-02-19T12:35:28.526Z,43.20
2019-02-19T12:36:41.765Z,43.20
2019-02-19T12:37:54.997Z,43.50
2019-02-19T12:39:08.234Z,43.40
2019-02-19T12:40:27.253Z,43.30
2019-02-19T12:41:40.503Z,43.00
2019-02-19T12:42:53.727Z,43.10
2019-02-19T12:44:06.972Z,43.00
2019-02-19T12:45:20.207Z,43.00
2019-02-19T12:46:33.450Z,42.70
2019-02-19T12:47:46.683Z,42.50
2019-02-19T12:48:59.914Z,41.90
2019-02-19T12:50:17.425Z,42.00
2019-02-19T12:51:30.665Z,41.90
2019-02-19T12:52:43.894Z,41.50
2019-02-19T12:53:57.126Z,40.90
2019-02-19T12:55:10.625Z,40.00
2019-02-19T12:56:23.870Z,39.40
2019-02-19T12:57:37.106Z,39.00
2019-02-19T12:58:50.343Z,38.90
2019-02-19T13:00:04.309Z,39.10
2019-02-19T13:01:17.557Z,39.20
2019-02-19T13:02:30.781Z,39.30
2019-02-19T13:03:44.021Z,39.30
2019-02-19T13:04:57.251Z,39.70
2019-02-19T13:06:10.496Z,39.10
2019-02-19T13:07:23.726Z,37.40
2019-02-19T13:08:36.963Z,36.50
2019-02-19T13:09:50.193Z,34.60
2019-02-19T13:11:03.421Z,34.50
2019-02-19T13:12:16.661Z,34.30
2019-02-19T13:13:29.925Z,33.70
2019-02-19T13:14:43.197Z,33.10
2019-02-19T13:15:56.429Z,32.70
2019-02-19T13:17:09.657Z,32.90
2019-02-19T13:18:22.894Z,32.90
2019-02-19T13:19:36.125Z,32.90
2019-02-19T13:20:49.351Z,33.10
2019-02-19T13:22:02.578Z,33.60
2019-02-19T13:23:15.810Z,33.70
2019-02-19T13:24:29.037Z,33.10
2019-02-19T13:25:42.273Z,33.20
2019-02-19T13:26:55.498Z,34.50
2019-02-19T13:28:08.728Z,34.30
2019-02-19T13:29:21.973Z,35.00
2019-02-19T13:30:35.201Z,35.70
2019-02-19T13:31:48.435Z,36.20
2019-02-19T13:33:01.666Z,36.30
2019-02-19T13:34:15.789Z,36.70
2019-02-19T13:35:29.033Z,37.20
2019-02-19T13:36:42.264Z,37.50
2019-02-19T13:37:55.493Z,37.50
2019-02-19T13:39:08.729Z,37.50
2019-02-19T13:40:21.962Z,37.30
2019-02-19T13:41:36.988Z,37.50
2019-02-19T13:42:50.329Z,37.90
2019-02-19T13:44:03.550Z,37.50
2019-02-19T13:45:16.781Z,37.40
2019-02-19T13:46:30.045Z,37.00
2019-02-19T13:47:43.280Z,37.00
2019-02-19T13:48:56.506Z,36.40
2019-02-19T13:50:12.984Z,34.40
2019-02-19T13:51:26.242Z,31.80
2019-02-19T13:52:41.120Z,30.10
2019-02-19T13:53:55.978Z,29.90
2019-02-19T13:55:10.850Z,30.00
2019-02-19T13:56:24.069Z,30.40
2019-02-19T13:57:37.312Z,30.00
2019-02-19T13:58:50.558Z,29.40
2019-02-19T14:00:04.314Z,28.80
2019-02-19T14:01:17.545Z,28.10
2019-02-19T14:02:30.786Z,27.40
2019-02-19T14:03:44.030Z,27.20
2019-02-19T14:04:57.266Z,26.80
2019-02-19T14:06:10.506Z,27.00
2019-02-19T14:07:23.733Z,26.90
2019-02-19T14:08:36.980Z,26.50
2019-02-19T14:09:50.201Z,26.80
2019-02-19T14:11:03.431Z,27.60
2019-02-19T14:12:16.663Z,27.90
2019-02-19T14:13:29.971Z,28.10
2019-02-19T14:14:44.845Z,28.90
2019-02-19T14:16:02.512Z,29.90
2019-02-19T14:17:15.874Z,30.80
2019-02-19T14:18:46.449Z,31.60
2019-02-19T14:20:01.317Z,32.70
2019-02-19T14:21:30.711Z,33.80
2019-02-19T14:22:57.671Z,33.40
2019-02-19T14:24:18.170Z,31.90
2019-02-19T14:25:33.050Z,30.00
2019-02-19T14:26:50.614Z,29.30
2019-02-19T14:28:05.549Z,28.40
2019-02-19T14:29:20.414Z,27.80
2019-02-19T14:30:41.042Z,27.90
2019-02-19T14:32:04.682Z,27.50
2019-02-19T14:33:28.585Z,26.90
2019-02-19T14:34:53.008Z,26.60
2019-02-19T14:36:13.579Z,26.60
2019-02-19T14:37:44.699Z,26.40
2019-02-19T14:38:59.578Z,26.40
2019-02-19T14:40:30.667Z,27.00
2019-02-19T14:41:55.086Z,27.30
2019-02-19T14:43:12.639Z,27.80
2019-02-19T14:44:36.238Z,28.40
2019-02-19T14:46:03.165Z,28.40
2019-02-19T14:47:34.168Z,29.00
2019-02-19T14:48:57.993Z,30.10
2019-02-19T14:50:29.250Z,30.80
2019-02-19T14:51:44.117Z,32.40
2019-02-19T14:52:58.993Z,33.50
2019-02-19T14:54:13.861Z,34.20
2019-02-19T14:55:28.737Z,34.70
2019-02-19T14:56:43.605Z,35.20
2019-02-19T14:58:01.220Z,35.80
2019-02-19T14:59:16.154Z,36.20
2019-02-19T15:00:39.577Z,36.50
2019-02-19T15:02:10.518Z,37.10
2019-02-19T15:03:25.397Z,37.80
2019-02-19T15:04:40.265Z,38.70
2019-02-19T15:06:06.917Z,38.90
2019-02-19T15:07:30.917Z,39.30
2019-02-19T15:08:51.435Z,39.60
2019-02-19T15:10:17.941Z,40.00
2019-02-19T15:11:38.473Z,39.70
2019-02-19T15:12:56.126Z,40.00
2019-02-19T15:14:19.654Z,40.10
2019-02-19T15:15:34.514Z,40.10
2019-02-19T15:17:05.628Z,40.10
2019-02-19T15:18:36.730Z,40.10
2019-02-19T15:20:07.898Z,40.30
2019-02-19T15:21:25.821Z,40.20
2019-02-19T15:22:43.191Z,40.40
2019-02-19T15:24:14.480Z,40.60
2019-02-19T15:25:30.990Z,40.80
2019-02-19T15:26:51.637Z,40.60
2019-02-19T15:28:06.511Z,40.70
2019-02-19T15:29:36.235Z,41.10
2019-02-19T15:30:53.530Z,41.80
2019-02-19T15:32:14.098Z,42.40
2019-02-19T15:33:44.829Z,43.00
2019-02-19T15:35:05.421Z,43.40
2019-02-19T15:36:23.242Z,44.00
2019-02-19T15:37:50.138Z,44.30
2019-02-19T15:39:08.177Z,44.60
2019-02-19T15:40:28.897Z,44.90
2019-02-19T15:41:43.773Z,45.10
2019-02-19T15:43:04.722Z,45.40
2019-02-19T15:44:22.542Z,45.90
2019-02-19T15:45:43.402Z,46.00
2019-02-19T15:47:07.030Z,46.20
2019-02-19T15:48:33.762Z,46.30
2019-02-19T15:50:00.227Z,46.20
2019-02-19T15:51:15.173Z,46.10
2019-02-19T15:52:32.705Z,46.00
2019-02-19T15:54:03.830Z,45.90
2019-02-19T15:55:21.650Z,45.80